Sunday, October 21, 2018, 7:28 PM EDT
Back to Local

KMMU, Morristown Municipal

Location: Morristown, NJ, United States Lat: 40.8
Local Time: 7:28 PM EDT (23:28 GMT) Lon: -74.417
Time Zone: US/Eastern Elev: 187 ft

Show me the last for .
Show Coded

Time T Td Feel RH Dir Speed Gust Alt SLP Vis Weather Sky Remarks
2018-10-21 18:45 41 27 36 56 320° 7 - 30.10 - 10 CLR None
2018-10-21 17:45 43 25 35 48 330° 7 18 30.08 - 10 FEW055 None
2018-10-21 16:45 45 27 36 48 330° 8 23 30.04 - 10 FEW050 None
2018-10-21 15:45 45 27 35 48 350° 16 26 30.02 - 10 SCT049 None
2018-10-21 14:45 45 27 36 48 320° 15 24 30.01 - 10 BKN049 None
2018-10-21 13:45 45 30 35 56 320° 15 28 30.00 - 10 OVC045 None
2018-10-21 12:45 45 30 35 56 350° 12 25 29.98 - 10 BKN043 None
2018-10-21 11:45 45 30 36 56 340° 13 23 29.98 - 10 BKN042 None
2018-10-21 10:50 45 30 35 56 350° 20 29 29.97 - 10 BKN044 None
2018-10-21 09:45 45 30 34 56 10° 13 32 29.95 - 10 BKN046 None
2018-10-21 08:45 45 30 34 56 360° 14 35 29.92 - 10 BKN042 None
2018-10-21 07:45 45 32 35 61 360° 14 30 29.87 - 10 SCT040 SCT120 None
2018-10-21 06:45 46 39 39 75 340° 10 20 29.79 - 10 SCT070 BKN090 None
2018-10-21 06:35 46 39 39 75 320° 10 20 29.77 - 10 SCT070 OVC090 None
2018-10-21 06:15 46 39 42 75 310° 9 - 29.76 - 10 BKN070 OVC090 None
2018-10-21 05:55 46 39 41 75 320° 10 - 29.73 - 10 SCT060 OVC080 None
2018-10-21 05:35 46 39 42 75 320° 8 - 29.72 - 10 OVC060 None
2018-10-21 05:15 46 39 40 75 320° 9 16 29.71 - 10 OVC050 None
2018-10-21 04:55 46 39 41 75 330° 10 - 29.69 - 10 OVC050 None
2018-10-21 04:35 46 41 42 81 320° 8 - 29.68 - 10 SCT041 OVC047 None
2018-10-21 04:15 46 41 41 81 330° 10 - 29.67 - 10 OVC038 None
2018-10-21 03:55 46 41 39 81 330° 7 18 29.66 - 10 OVC034 None
2018-10-21 03:35 48 43 44 81 320° 9 - 29.65 - 10 OVC030 None
2018-10-21 03:15 48 43 45 81 320° 8 - 29.65 - 10 BKN031 OVC036 None
2018-10-21 02:55 48 45 45 87 310° 8 - 29.64 - 10 SCT024 OVC036 None
2018-10-21 02:35 48 45 46 87 310° 6 - 29.64 - 10 SCT024 SCT120 None
2018-10-21 02:15 48 45 47 87 290° 3 - 29.62 - 10 SCT020 SCT120 None
2018-10-21 01:55 48 46 44 93 250° 10 - 29.62 - 10 SCT095 BKN120 None
2018-10-21 01:35 48 45 46 87 300° 5 - 29.60 - 10 SCT095 OVC120 None
2018-10-21 01:15 48 46 45 93 10° 7 - 29.59 - 10 SCT050 SCT065 BKN120 None
2018-10-21 00:55 48 46 47 93 300° 3 - 29.63 - 10 DZ BKN048 BKN065 OVC120 None
2018-10-21 00:35 48 46 46 93 240° 5 - 29.64 - 10 RA BKN050 OVC065 1-hr Precip Total: 0.01"
2018-10-21 00:15 48 45 46 87 250° 6 - 29.65 - 10 RA SCT050 OVC060 None
2018-10-20 23:55 48 45 46 87 270° 5 - 29.64 - 10 OVC060 None
2018-10-20 23:35 50 45 - 81 - Calm - 29.65 - 10 OVC060 None
2018-10-20 23:15 48 45 - 87 - Calm - 29.64 - 10 SCT060 OVC090 None
2018-10-20 22:55 48 43 46 81 20° 5 - 29.64 - 10 SCT043 SCT050 BKN090 None
2018-10-20 22:35 45 45 41 100 290° 7 - 29.65 - 10 BKN055 BKN075 OVC110 None
2018-10-20 22:15 45 45 - 100 - Calm - 29.63 - 10 SCT065 SCT075 BKN110 None
2018-10-20 21:45 46 45 - 93 - Calm - 29.64 - 10 BKN055 BKN065 BKN080 None
2018-10-20 20:45 50 45 48 81 350° 5 - 29.63 - 10 BKN065 None
2018-10-20 19:45 46 45 44 93 300° 6 - 29.62 - 10 CLR None

Support USWX by starting your Amazon purchase here.